METAR Data
IDs: Format: Raw Decoded Include TAF

Data at: 2232 UTC 10 May 2021

KRCV 102215Z AUTO 25021G27KT 10SM SCT070 SCT120 15/M05 A2995 RMK AO2 T01531046
KRCV 102155Z AUTO 27013G27KT 230V290 10SM SCT070 BKN090 15/M05 A2995 RMK AO2 T01541050
KRCV 102135Z AUTO 23022G27KT 10SM SCT070 OVC090 15/M06 A2995 RMK AO2 T01451062
KRCV 102115Z AUTO 23016G30KT 10SM OVC080 15/M06 A2995 RMK AO2 T01491064
KRCV 102055Z AUTO 20019G28KT 10SM BKN080 14/M04 A2995 RMK AO2 T01431040
KRCV 102035Z AUTO 24021G30KT 10SM CLR 16/M05 A2996 RMK AO2 T01591054
KRCV 102015Z AUTO 22019G32KT 10SM CLR 14/M04 A2997 RMK AO2 T01441037
KRCV 101955Z AUTO 22022G36KT 10SM SCT100 15/M05 A2997 RMK AO2 T01491055
KRCV 101935Z AUTO 22028G36KT 10SM SCT100 SCT120 16/M07 A2996 RMK AO2 T01631067
KRCV 101915Z AUTO 23018G26KT 10SM SCT100 16/M08 A2995 RMK AO2 T01631079
KRCV 101855Z AUTO 25020G29KT 10SM SCT100 16/M08 A2995 RMK AO2 T01561082
KRCV 101835Z AUTO 24016G31KT 200V260 10SM SCT090 SCT110 16/M07 A2995 RMK AO2 T01641072
KRCV 101815Z AUTO 22019G33KT 10SM SCT090 16/M08 A2996 RMK AO2 T01581078
KRCV 101755Z AUTO 26021G28KT 10SM SCT100 SCT120 16/M07 A2997 RMK AO2 LTG DSNT NW T01551074 10159 21005
KRCV 101735Z AUTO 25023G35KT 10SM SCT110 15/M08 A2997 RMK AO2 T01501081
KRCV 101715Z AUTO 22024G33KT 10SM SCT090 BKN110 15/M08 A2997 RMK AO2 T01491077
KRCV 101655Z AUTO 24021G28KT 10SM BKN110 14/M09 A2997 RMK AO2 T01421086
KRCV 101635Z AUTO 24014G22KT 10SM SCT095 SCT120 12/M03 A2999 RMK AO2 T01151032
KRCV 101615Z AUTO 11009KT 10SM SCT095 10/M03 A2999 RMK AO2 T01041027
KRCV 101555Z AUTO 09008KT 10SM CLR 10/M02 A3000 RMK AO2 T00971021
KRCV 101535Z AUTO 09008KT 10SM CLR 09/M02 A3001 RMK AO2 T00911018
KRCV 101515Z AUTO 09007KT 10SM SCT095 08/M02 A3002 RMK AO2 T00831019
KRCV 101455Z AUTO 10008KT 10SM CLR 08/M02 A3003 RMK AO2 T00771016
KRCV 101435Z AUTO 10008KT 10SM CLR 06/M02 A3003 RMK AO2 T00641017
KRCV 101415Z AUTO 08007KT 10SM CLR 06/M02 A3004 RMK AO2 T00601019
KRCV 101355Z AUTO 07005KT 10SM CLR 06/M04 A3005 RMK AO2 T00551039
KRCV 101335Z AUTO 12003KT 10SM SCT070 SCT090 05/M06 A3005 RMK AO2 T00451057
KRCV 101315Z AUTO 00000KT 10SM SCT070 SCT100 04/M06 A3005 RMK AO2 T00401060
KRCV 101255Z AUTO 00000KT 10SM SCT110 02/M07 A3005 RMK AO2 T00191067
KRCV 101235Z AUTO 11003KT 10SM SCT095 SCT110 00/M08 A3005 RMK AO2 T00011078
KRCV 101215Z AUTO 36004KT 10SM SCT110 00/M08 A3005 RMK AO2 T00001081
KRCV 101155Z AUTO 31003KT 10SM CLR 01/M08 A3005 RMK AO2 T00101079 10072 20009
KRCV 101135Z AUTO 00000KT 10SM SCT120 02/M08 A3005 RMK AO2 T00231077
KRCV 101115Z AUTO 28003KT 10SM SCT110 02/M07 A3005 RMK AO2 T00221075
KRCV 101055Z AUTO 26005KT 10SM SCT060 SCT080 OVC110 04/M07 A3005 RMK AO2 T00351071
KRCV 101035Z AUTO 15003KT 10SM BKN060 OVC080 04/M07 A3006 RMK AO2 T00431072
KRCV 101015Z AUTO 27005KT 10SM SCT080 BKN090 BKN120 03/M07 A3007 RMK AO2 T00341074
KRCV 100955Z AUTO 34003KT 10SM SCT070 BKN080 BKN120 03/M07 A3006 RMK AO2 T00311075
KRCV 100935Z AUTO 01004KT 10SM BKN080 BKN120 02/M08 A3005 RMK AO2 T00181081
KRCV 100915Z AUTO 36004KT 10SM SCT080 01/M08 A3005 RMK AO2 T00121085
KRCV 100855Z AUTO 33003KT 10SM CLR 02/M08 A3005 RMK AO2 T00241083
KRCV 100835Z AUTO 35005KT 10SM CLR 02/M08 A3005 RMK AO2 T00221078
KRCV 100815Z AUTO 15003KT 10SM CLR 05/M07 A3004 RMK AO2 T00511075
KRCV 100755Z AUTO 18006KT 10SM CLR 05/M07 A3005 RMK AO2 T00461073
KRCV 100735Z AUTO 20004KT 10SM CLR 05/M07 A3005 RMK AO2 T00501072
KRCV 100715Z AUTO 00000KT 10SM CLR 04/M07 A3005 RMK AO2 LTG DSNT E T00361073
KRCV 100655Z AUTO 00000KT 10SM CLR 03/M07 A3005 RMK AO2 LTG DSNT E T00331073 401711010
KRCV 100635Z AUTO 25005KT 10SM CLR 06/M08 A3004 RMK AO2 T00591081
KRCV 100615Z AUTO 25007KT 10SM CLR 07/M08 A3003 RMK AO2 T00701081
KRCV 100555Z AUTO 27008KT 10SM SCT120 05/M08 A3003 RMK AO2 T00541084 10129 20054
KRCV 100535Z AUTO 23008KT 10SM SCT100 SCT120 07/M08 A3003 RMK AO2 LTG DSNT SE T00701084
KRCV 100515Z AUTO 22006KT 10SM CLR 07/M08 A3003 RMK AO2 LTG DSNT E T00691083
KRCV 100455Z AUTO 22008KT 10SM SCT110 08/M09 A3004 RMK AO2 T00751087
KRCV 100435Z AUTO 22006KT 10SM SCT120 07/M09 A3004 RMK AO2 T00701090
KRCV 100415Z AUTO 29007KT 10SM SCT090 SCT120 09/M09 A3003 RMK AO2 T00861092
KRCV 100355Z AUTO 29006KT 10SM CLR 09/M09 A3004 RMK AO2 T00891093
KRCV 100335Z AUTO 29006KT 10SM SCT090 09/M09 A3004 RMK AO2 T00931093
KRCV 100315Z AUTO 27010KT 10SM SCT070 OVC090 10/M09 A3005 RMK AO2 T01011095
KRCV 100255Z AUTO 29006KT 10SM SCT110 09/M10 A3003 RMK AO2 T00911098
KRCV 100235Z AUTO 30004KT 10SM CLR 10/M10 A3002 RMK AO2 T00961100
KRCV 100215Z AUTO 31007KT 10SM SCT110 11/M10 A3001 RMK AO2 T01051102
KRCV 100155Z AUTO 28007KT 10SM SCT100 SCT120 11/M11 A3001 RMK AO2 LTG DSNT SE T01111108
KRCV 100135Z AUTO 25009KT 10SM SCT120 12/M12 A3000 RMK AO2 T01181116
KRCV 100115Z AUTO 25010KT 10SM SCT110 12/M10 A3000 RMK AO2 T01211099
KRCV 100055Z AUTO 29004KT 10SM SCT110 12/M10 A3000 RMK AO2 T01231096
KRCV 100035Z AUTO 29006G16KT 10SM BKN100 BKN120 12/M10 A2999 RMK AO2 T01241099
KRCV 100015Z AUTO 28015G20KT 10SM OVC100 12/M10 A2999 RMK AO2 T01231099
KRCV 092355Z AUTO 28012G16KT 10SM BKN110 13/M11 A2999 RMK AO2 T01271108 10171 20126
KRCV 092335Z AUTO 27014G25KT 10SM SCT110 13/M11 A2999 RMK AO2 T01271108
KRCV 092315Z AUTO 25021G29KT 10SM BKN110 15/M10 A2999 RMK AO2 T01491104
KRCV 092255Z AUTO 27018G26KT 10SM OVC110 14/M09 A2999 RMK AO2 T01351095
KRCV 092235Z AUTO 24012G18KT 10SM OVC100 13/M10 A2999 RMK AO2 T01301103
KRCV 092215Z AUTO 29013KT 10SM BKN100 14/M10 A2999 RMK AO2 T01351097
KRCV 092155Z AUTO 26012G23KT 230V290 10SM SCT100 SCT120 14/M11 A2999 RMK AO2 T01381108
KRCV 092135Z AUTO 29020G28KT 10SM SCT100 SCT120 14/M10 A2998 RMK AO2 T01411102
KRCV 092115Z AUTO 28021G35KT 10SM SCT085 BKN100 14/M10 A2999 RMK AO2 T01441100
KRCV 092055Z AUTO 23020G31KT 10SM BKN100 14/M11 A2998 RMK AO2 T01411110
KRCV 092035Z AUTO 24016G26KT 10SM BKN110 15/M12 A2997 RMK AO2 T01511116
KRCV 092015Z AUTO 22017G25KT 10SM OVC110 15/M11 A2998 RMK AO2 T01521114
KRCV 091955Z AUTO 27012G21KT 190V330 10SM BKN110 14/M11 A2998 RMK AO2 LTG DSNT SE T01431112
KRCV 091935Z AUTO 26011G31KT 10SM SCT110 16/M12 A2998 RMK AO2 T01621119
KRCV 091915Z AUTO 23012G23KT 10SM BKN110 17/M12 A2998 RMK AO2 T01661122
KRCV 091855Z AUTO 23017G31KT 10SM SCT110 16/M11 A2999 RMK AO2 T01621115
KRCV 091835Z AUTO 25015G28KT 10SM CLR 16/M11 A2999 RMK AO2 T01601112
KRCV 091815Z AUTO 24019G27KT 10SM CLR 16/M11 A2999 RMK AO2 T01621110
KRCV 091755Z AUTO 23017G27KT 10SM CLR 16/M12 A2999 RMK AO2 T01571124 10158 21001
KRCV 091735Z AUTO 20003KT 10SM CLR 14/M06 A3000 RMK AO2 T01371059
KRCV 091715Z AUTO 09011KT 10SM SCT110 13/M06 A3000 RMK AO2 T01311056
KRCV 091655Z AUTO 12007KT 090V150 10SM CLR 13/M04 A3002 RMK AO2 T01251043
KRCV 091635Z AUTO 09011KT 10SM CLR 11/M03 A3002 RMK AO2 T01141033
KRCV 091615Z AUTO 11007KT 10SM CLR 11/M03 A3003 RMK AO2 T01081033
KRCV 091555Z AUTO 12010KT 090V150 10SM CLR 11/M05 A3003 RMK AO2 T01061049
KRCV 091535Z AUTO 11005KT 10SM CLR 10/M04 A3004 RMK AO2 T00971044
KRCV 091515Z AUTO 09007KT 10SM CLR 09/M05 A3005 RMK AO2 T00871054
KRCV 091455Z AUTO 12003KT 10SM CLR 08/M06 A3005 RMK AO2 T00781058
KRCV 091435Z AUTO 15003KT 10SM CLR 08/M07 A3005 RMK AO2 T00761067
KRCV 091415Z AUTO 23003KT 10SM CLR 07/M08 A3005 RMK AO2 T00671076
KRCV 091355Z AUTO 26006KT 10SM CLR 06/M08 A3005 RMK AO2 T00571082
KRCV 091335Z AUTO 27008KT 10SM CLR 04/M08 A3005 RMK AO2 T00411082
KRCV 091315Z AUTO 26009KT 10SM CLR 03/M08 A3005 RMK AO2 T00271080
KRCV 091255Z AUTO 27008KT 10SM CLR 02/M08 A3005 RMK AO2 T00191082
KRCV 091235Z AUTO 27010KT 10SM CLR 01/M09 A3005 RMK AO2 T00091086
KRCV 091215Z AUTO 27011KT 10SM CLR 01/M09 A3004 RMK AO2 T00051090
KRCV 091155Z AUTO 28010KT 10SM CLR 01/M08 A3003 RMK AO2 T00071085 10048 21010
KRCV 091135Z AUTO 28008KT 10SM CLR 00/M08 A3003 RMK AO2 T00021081
KRCV 091115Z AUTO 29004KT 10SM CLR M01/M08 A3003 RMK AO2 T10061080
KRCV 091055Z AUTO 26006G09KT 10SM CLR 00/M08 A3003 RMK AO2 T00001083
KRCV 091035Z AUTO 27012KT 10SM CLR M01/M09 A3003 RMK AO2 T10071086